Selfridge Air Natl Guard, Michigan
Current Conditions -  °F | °C
As of 2:55 PM on Saturday 25 Oct 2014 (Local Time) from KMTC Reporting Station
Few Clouds Few Clouds  
Wind Chill: 65°   Ceiling: Unl
Heat Index: 65°   Visibility: 7mi
Dew Point: 48°   Wind: 14mph
Humidity: 54%   Direction: 260°W
Pressure: 29.71"   Gusts: 22mph
Location:  42.5826°N, 82.8345°W
Report Text: KMTC 251855Z 26012G19KT 7SM FEW027 18/09 A2971 RMK SLP067 T01840089
Loading
Personal Weather Stations






























Interactive Weather Map
Tropical Storm Tracking
New forecast layout! Learn more

10-Day Weather Forecast

Advertisements
Track Severe Weather on mobile